sensor_id;sensor_type;location;lat;lon;timestamp;temperature;humidity
20345;DHT22;10330;48.816;9.278;2024-02-21T00:03:26;7.40;99.90
20345;DHT22;10330;48.816;9.278;2024-02-21T00:06:03;7.50;99.90
20345;DHT22;10330;48.816;9.278;2024-02-21T00:08:32;7.40;99.90
20345;DHT22;10330;48.816;9.278;2024-02-21T00:11:02;7.50;99.90
20345;DHT22;10330;48.816;9.278;2024-02-21T00:13:28;7.50;99.90
20345;DHT22;10330;48.816;9.278;2024-02-21T00:15:54;7.40;99.90
20345;DHT22;10330;48.816;9.278;2024-02-21T00:18:21;7.40;99.90
20345;DHT22;10330;48.816;9.278;2024-02-21T00:20:59;7.40;99.90
20345;DHT22;10330;48.816;9.278;2024-02-21T00:23:46;7.40;99.90
20345;DHT22;10330;48.816;9.278;2024-02-21T00:26:14;7.40;99.90
20345;DHT22;10330;48.816;9.278;2024-02-21T00:28:45;7.40;99.90
20345;DHT22;10330;48.816;9.278;2024-02-21T00:31:12;7.40;99.90
20345;DHT22;10330;48.816;9.278;2024-02-21T00:33:38;7.40;99.90
20345;DHT22;10330;48.816;9.278;2024-02-21T00:36:05;7.40;99.90
20345;DHT22;10330;48.816;9.278;2024-02-21T00:38:34;7.40;99.90
20345;DHT22;10330;48.816;9.278;2024-02-21T00:41:09;7.40;99.90
20345;DHT22;10330;48.816;9.278;2024-02-21T00:43:38;7.40;99.90
20345;DHT22;10330;48.816;9.278;2024-02-21T00:46:08;7.40;99.90
20345;DHT22;10330;48.816;9.278;2024-02-21T00:48:35;7.40;99.90
20345;DHT22;10330;48.816;9.278;2024-02-21T00:51:01;7.40;99.90
20345;DHT22;10330;48.816;9.278;2024-02-21T00:53:27;7.40;99.90
20345;DHT22;10330;48.816;9.278;2024-02-21T00:55:54;7.40;99.90
20345;DHT22;10330;48.816;9.278;2024-02-21T00:58:22;7.50;99.90
20345;DHT22;10330;48.816;9.278;2024-02-21T01:00:48;7.50;99.90
20345;DHT22;10330;48.816;9.278;2024-02-21T01:03:25;7.50;99.90
20345;DHT22;10330;48.816;9.278;2024-02-21T01:05:51;7.50;99.90
20345;DHT22;10330;48.816;9.278;2024-02-21T01:08:18;7.50;99.90
20345;DHT22;10330;48.816;9.278;2024-02-21T01:10:47;7.50;99.90
20345;DHT22;10330;48.816;9.278;2024-02-21T01:13:14;7.40;99.90
20345;DHT22;10330;48.816;9.278;2024-02-21T01:15:40;7.40;99.90
20345;DHT22;10330;48.816;9.278;2024-02-21T01:18:07;7.40;99.90
20345;DHT22;10330;48.816;9.278;2024-02-21T01:20:33;7.30;99.90
20345;DHT22;10330;48.816;9.278;2024-02-21T01:23:00;7.30;99.90
20345;DHT22;10330;48.816;9.278;2024-02-21T01:25:38;7.30;99.90
20345;DHT22;10330;48.816;9.278;2024-02-21T01:28:07;7.30;99.90
20345;DHT22;10330;48.816;9.278;2024-02-21T01:30:35;7.30;99.90
20345;DHT22;10330;48.816;9.278;2024-02-21T01:33:04;7.20;99.90
20345;DHT22;10330;48.816;9.278;2024-02-21T01:35:45;7.30;99.90
20345;DHT22;10330;48.816;9.278;2024-02-21T01:42:33;7.20;99.90
20345;DHT22;10330;48.816;9.278;2024-02-21T01:45:01;7.20;99.90
20345;DHT22;10330;48.816;9.278;2024-02-21T01:47:28;7.10;99.90
20345;DHT22;10330;48.816;9.278;2024-02-21T01:50:14;7.10;99.90
20345;DHT22;10330;48.816;9.278;2024-02-21T01:53:16;7.20;99.90
20345;DHT22;10330;48.816;9.278;2024-02-21T01:55:54;7.20;99.90
20345;DHT22;10330;48.816;9.278;2024-02-21T01:58:56;7.10;99.90
20345;DHT22;10330;48.816;9.278;2024-02-21T02:01:29;7.10;99.90
20345;DHT22;10330;48.816;9.278;2024-02-21T02:04:41;7.20;99.90
20345;DHT22;10330;48.816;9.278;2024-02-21T02:08:13;7.10;99.90
20345;DHT22;10330;48.816;9.278;2024-02-21T02:10:43;7.10;99.90
20345;DHT22;10330;48.816;9.278;2024-02-21T02:13:09;7.10;99.90
20345;DHT22;10330;48.816;9.278;2024-02-21T02:16:10;7.10;99.90
20345;DHT22;10330;48.816;9.278;2024-02-21T02:19:31;7.00;99.90
20345;DHT22;10330;48.816;9.278;2024-02-21T02:22:53;7.10;99.90
20345;DHT22;10330;48.816;9.278;2024-02-21T02:29:33;6.90;99.90
20345;DHT22;10330;48.816;9.278;2024-02-21T02:32:38;6.90;99.90
20345;DHT22;10330;48.816;9.278;2024-02-21T02:39:01;7.00;99.90
20345;DHT22;10330;48.816;9.278;2024-02-21T02:42:14;7.00;99.90
20345;DHT22;10330;48.816;9.278;2024-02-21T02:44:41;7.00;99.90
20345;DHT22;10330;48.816;9.278;2024-02-21T02:47:08;7.00;99.90
20345;DHT22;10330;48.816;9.278;2024-02-21T02:49:36;7.00;99.90
20345;DHT22;10330;48.816;9.278;2024-02-21T02:52:02;7.00;99.90
20345;DHT22;10330;48.816;9.278;2024-02-21T02:54:32;7.00;99.90
20345;DHT22;10330;48.816;9.278;2024-02-21T02:57:04;7.00;99.90
20345;DHT22;10330;48.816;9.278;2024-02-21T02:59:34;7.00;99.90
20345;DHT22;10330;48.816;9.278;2024-02-21T03:02:03;7.10;99.90
20345;DHT22;10330;48.816;9.278;2024-02-21T03:08:24;7.00;99.90
20345;DHT22;10330;48.816;9.278;2024-02-21T03:15:25;7.00;99.90
20345;DHT22;10330;48.816;9.278;2024-02-21T03:18:44;7.00;99.90
20345;DHT22;10330;48.816;9.278;2024-02-21T03:22:15;7.00;99.90
20345;DHT22;10330;48.816;9.278;2024-02-21T03:29:22;7.00;99.90
20345;DHT22;10330;48.816;9.278;2024-02-21T03:32:00;7.00;99.90
20345;DHT22;10330;48.816;9.278;2024-02-21T03:34:27;7.00;99.90
20345;DHT22;10330;48.816;9.278;2024-02-21T03:36:56;6.90;99.90
20345;DHT22;10330;48.816;9.278;2024-02-21T03:39:25;6.90;99.90
20345;DHT22;10330;48.816;9.278;2024-02-21T03:41:52;6.90;99.90
20345;DHT22;10330;48.816;9.278;2024-02-21T03:44:19;6.90;99.90
20345;DHT22;10330;48.816;9.278;2024-02-21T03:46:48;6.90;99.90
20345;DHT22;10330;48.816;9.278;2024-02-21T03:49:27;7.00;99.90
20345;DHT22;10330;48.816;9.278;2024-02-21T03:51:58;6.90;99.90
20345;DHT22;10330;48.816;9.278;2024-02-21T03:54:24;6.90;99.90
20345;DHT22;10330;48.816;9.278;2024-02-21T03:56:53;6.90;99.90
20345;DHT22;10330;48.816;9.278;2024-02-21T03:59:22;6.90;99.90
20345;DHT22;10330;48.816;9.278;2024-02-21T04:01:52;6.90;99.90
20345;DHT22;10330;48.816;9.278;2024-02-21T04:04:20;6.90;99.90
20345;DHT22;10330;48.816;9.278;2024-02-21T04:06:51;6.90;99.90
20345;DHT22;10330;48.816;9.278;2024-02-21T04:09:20;6.90;99.90
20345;DHT22;10330;48.816;9.278;2024-02-21T04:11:49;6.90;99.90
20345;DHT22;10330;48.816;9.278;2024-02-21T04:14:15;7.00;99.90
20345;DHT22;10330;48.816;9.278;2024-02-21T04:16:47;7.00;99.90
20345;DHT22;10330;48.816;9.278;2024-02-21T04:19:22;7.00;99.90
20345;DHT22;10330;48.816;9.278;2024-02-21T04:22:19;7.00;99.90
20345;DHT22;10330;48.816;9.278;2024-02-21T04:24:54;6.90;99.90
20345;DHT22;10330;48.816;9.278;2024-02-21T04:27:28;7.00;99.90
20345;DHT22;10330;48.816;9.278;2024-02-21T04:30:00;6.90;99.90
20345;DHT22;10330;48.816;9.278;2024-02-21T04:32:28;6.90;99.90
20345;DHT22;10330;48.816;9.278;2024-02-21T04:34:55;6.90;99.90
20345;DHT22;10330;48.816;9.278;2024-02-21T04:37:48;6.90;99.90
20345;DHT22;10330;48.816;9.278;2024-02-21T04:40:37;6.90;99.90
20345;DHT22;10330;48.816;9.278;2024-02-21T04:43:11;6.80;99.90
20345;DHT22;10330;48.816;9.278;2024-02-21T04:45:58;6.80;99.90
20345;DHT22;10330;48.816;9.278;2024-02-21T04:48:24;6.80;99.90
20345;DHT22;10330;48.816;9.278;2024-02-21T04:50:53;6.90;99.90
20345;DHT22;10330;48.816;9.278;2024-02-21T04:53:38;6.80;99.90
20345;DHT22;10330;48.816;9.278;2024-02-21T04:56:14;6.80;99.90
20345;DHT22;10330;48.816;9.278;2024-02-21T04:59:02;6.70;99.90
20345;DHT22;10330;48.816;9.278;2024-02-21T05:01:38;6.70;99.90
20345;DHT22;10330;48.816;9.278;2024-02-21T05:04:07;6.70;99.90
20345;DHT22;10330;48.816;9.278;2024-02-21T05:06:41;6.70;99.90
20345;DHT22;10330;48.816;9.278;2024-02-21T05:09:10;6.70;99.90
20345;DHT22;10330;48.816;9.278;2024-02-21T05:11:36;6.70;99.90
20345;DHT22;10330;48.816;9.278;2024-02-21T05:14:04;6.70;99.90
20345;DHT22;10330;48.816;9.278;2024-02-21T05:16:33;6.60;99.90
20345;DHT22;10330;48.816;9.278;2024-02-21T05:18:59;6.50;99.90
20345;DHT22;10330;48.816;9.278;2024-02-21T05:21:25;6.50;99.90
20345;DHT22;10330;48.816;9.278;2024-02-21T05:23:54;6.40;99.90
20345;DHT22;10330;48.816;9.278;2024-02-21T05:26:23;6.40;99.90
20345;DHT22;10330;48.816;9.278;2024-02-21T05:28:51;6.40;99.90
20345;DHT22;10330;48.816;9.278;2024-02-21T05:31:18;6.30;99.90
20345;DHT22;10330;48.816;9.278;2024-02-21T05:33:45;6.30;99.90
20345;DHT22;10330;48.816;9.278;2024-02-21T05:36:12;6.30;99.90
20345;DHT22;10330;48.816;9.278;2024-02-21T05:38:39;6.40;99.90
20345;DHT22;10330;48.816;9.278;2024-02-21T05:41:05;6.40;99.90
20345;DHT22;10330;48.816;9.278;2024-02-21T05:43:32;6.50;99.90
20345;DHT22;10330;48.816;9.278;2024-02-21T05:45:58;6.50;99.90
20345;DHT22;10330;48.816;9.278;2024-02-21T05:48:25;6.50;99.90
20345;DHT22;10330;48.816;9.278;2024-02-21T05:50:51;6.60;99.90
20345;DHT22;10330;48.816;9.278;2024-02-21T05:53:18;6.60;99.90
20345;DHT22;10330;48.816;9.278;2024-02-21T05:55:44;6.60;99.90
20345;DHT22;10330;48.816;9.278;2024-02-21T05:58:11;6.60;99.90
20345;DHT22;10330;48.816;9.278;2024-02-21T06:00:39;6.60;99.90
20345;DHT22;10330;48.816;9.278;2024-02-21T06:03:08;6.60;99.90
20345;DHT22;10330;48.816;9.278;2024-02-21T06:05:38;6.60;99.90
20345;DHT22;10330;48.816;9.278;2024-02-21T06:08:05;6.60;99.90
20345;DHT22;10330;48.816;9.278;2024-02-21T06:10:32;6.60;99.90
20345;DHT22;10330;48.816;9.278;2024-02-21T06:13:06;6.60;99.90
20345;DHT22;10330;48.816;9.278;2024-02-21T06:15:59;6.60;99.90
20345;DHT22;10330;48.816;9.278;2024-02-21T06:19:03;6.60;99.90
20345;DHT22;10330;48.816;9.278;2024-02-21T06:21:29;6.50;99.90
20345;DHT22;10330;48.816;9.278;2024-02-21T06:23:56;6.50;99.90
20345;DHT22;10330;48.816;9.278;2024-02-21T06:26:22;6.50;99.90
20345;DHT22;10330;48.816;9.278;2024-02-21T06:28:48;6.40;99.90
20345;DHT22;10330;48.816;9.278;2024-02-21T06:31:22;6.40;99.90
20345;DHT22;10330;48.816;9.278;2024-02-21T06:33:49;6.40;99.90
20345;DHT22;10330;48.816;9.278;2024-02-21T06:36:18;6.40;99.90
20345;DHT22;10330;48.816;9.278;2024-02-21T06:38:46;6.40;99.90
20345;DHT22;10330;48.816;9.278;2024-02-21T06:41:16;6.40;99.90
20345;DHT22;10330;48.816;9.278;2024-02-21T06:43:47;6.40;99.90
20345;DHT22;10330;48.816;9.278;2024-02-21T06:46:27;6.40;99.90
20345;DHT22;10330;48.816;9.278;2024-02-21T06:48:58;6.40;99.90
20345;DHT22;10330;48.816;9.278;2024-02-21T06:51:26;6.50;99.90
20345;DHT22;10330;48.816;9.278;2024-02-21T06:53:53;6.60;99.90
20345;DHT22;10330;48.816;9.278;2024-02-21T06:56:20;6.60;99.90
20345;DHT22;10330;48.816;9.278;2024-02-21T06:58:46;6.60;99.90
20345;DHT22;10330;48.816;9.278;2024-02-21T07:01:13;6.60;99.90
20345;DHT22;10330;48.816;9.278;2024-02-21T07:03:39;6.70;99.90
20345;DHT22;10330;48.816;9.278;2024-02-21T07:06:06;6.70;99.90
20345;DHT22;10330;48.816;9.278;2024-02-21T07:08:32;6.80;99.90
20345;DHT22;10330;48.816;9.278;2024-02-21T07:10:58;6.80;99.90
20345;DHT22;10330;48.816;9.278;2024-02-21T07:13:25;6.80;99.90
20345;DHT22;10330;48.816;9.278;2024-02-21T07:15:51;6.80;99.90
20345;DHT22;10330;48.816;9.278;2024-02-21T07:18:18;6.80;99.90
20345;DHT22;10330;48.816;9.278;2024-02-21T07:20:48;6.90;99.90
20345;DHT22;10330;48.816;9.278;2024-02-21T07:23:14;6.90;99.90
20345;DHT22;10330;48.816;9.278;2024-02-21T07:25:41;6.90;99.90
20345;DHT22;10330;48.816;9.278;2024-02-21T07:28:07;7.00;99.90
20345;DHT22;10330;48.816;9.278;2024-02-21T07:30:33;7.00;99.90
20345;DHT22;10330;48.816;9.278;2024-02-21T07:32:59;7.10;99.90
20345;DHT22;10330;48.816;9.278;2024-02-21T07:38:51;7.10;99.90
20345;DHT22;10330;48.816;9.278;2024-02-21T07:48:47;7.40;99.90
20345;DHT22;10330;48.816;9.278;2024-02-21T07:54:47;7.50;99.90
20345;DHT22;10330;48.816;9.278;2024-02-21T08:28:16;8.10;99.90
20345;DHT22;10330;48.816;9.278;2024-02-21T08:30:42;8.30;99.90
20345;DHT22;10330;48.816;9.278;2024-02-21T08:33:18;8.30;99.90
20345;DHT22;10330;48.816;9.278;2024-02-21T08:35:46;8.40;99.90
20345;DHT22;10330;48.816;9.278;2024-02-21T08:38:15;8.40;99.90
20345;DHT22;10330;48.816;9.278;2024-02-21T08:40:52;8.50;99.90
20345;DHT22;10330;48.816;9.278;2024-02-21T08:51:18;8.50;99.90
20345;DHT22;10330;48.816;9.278;2024-02-21T09:10:02;8.80;99.90
20345;DHT22;10330;48.816;9.278;2024-02-21T09:21:00;8.90;99.90
20345;DHT22;10330;48.816;9.278;2024-02-21T09:23:55;8.90;99.90
20345;DHT22;10330;48.816;9.278;2024-02-21T09:26:48;8.90;99.90
20345;DHT22;10330;48.816;9.278;2024-02-21T09:29:21;8.90;99.90
20345;DHT22;10330;48.816;9.278;2024-02-21T09:32:07;9.00;99.90
20345;DHT22;10330;48.816;9.278;2024-02-21T09:34:42;9.00;99.90
20345;DHT22;10330;48.816;9.278;2024-02-21T09:37:09;9.00;99.90
20345;DHT22;10330;48.816;9.278;2024-02-21T09:40:24;9.10;99.90
20345;DHT22;10330;48.816;9.278;2024-02-21T09:57:15;9.40;99.90
20345;DHT22;10330;48.816;9.278;2024-02-21T09:59:52;9.60;99.90
20345;DHT22;10330;48.816;9.278;2024-02-21T10:02:46;9.50;99.90
20345;DHT22;10330;48.816;9.278;2024-02-21T10:05:17;9.60;99.90
20345;DHT22;10330;48.816;9.278;2024-02-21T10:08:06;9.70;99.90
20345;DHT22;10330;48.816;9.278;2024-02-21T10:10:45;9.90;99.90
20345;DHT22;10330;48.816;9.278;2024-02-21T10:13:33;10.10;99.90
20345;DHT22;10330;48.816;9.278;2024-02-21T10:16:26;10.20;99.90
20345;DHT22;10330;48.816;9.278;2024-02-21T10:22:47;10.60;99.90
20345;DHT22;10330;48.816;9.278;2024-02-21T10:25:45;10.70;99.90
20345;DHT22;10330;48.816;9.278;2024-02-21T10:32:54;11.10;99.90
20345;DHT22;10330;48.816;9.278;2024-02-21T10:38:56;11.20;99.90
20345;DHT22;10330;48.816;9.278;2024-02-21T10:41:46;11.40;99.90
20345;DHT22;10330;48.816;9.278;2024-02-21T10:44:22;11.60;99.90
20345;DHT22;10330;48.816;9.278;2024-02-21T10:50:29;11.80;99.90
20345;DHT22;10330;48.816;9.278;2024-02-21T11:00:46;12.30;99.90
20345;DHT22;10330;48.816;9.278;2024-02-21T11:12:07;12.40;99.90
20345;DHT22;10330;48.816;9.278;2024-02-21T11:19:55;12.30;99.90
20345;DHT22;10330;48.816;9.278;2024-02-21T11:22:24;12.20;99.90
20345;DHT22;10330;48.816;9.278;2024-02-21T11:25:12;12.20;99.90
20345;DHT22;10330;48.816;9.278;2024-02-21T11:27:49;12.30;99.90
20345;DHT22;10330;48.816;9.278;2024-02-21T11:30:19;12.30;99.90
20345;DHT22;10330;48.816;9.278;2024-02-21T11:33:02;12.40;99.90
20345;DHT22;10330;48.816;9.278;2024-02-21T11:36:21;12.40;99.90
20345;DHT22;10330;48.816;9.278;2024-02-21T11:43:20;12.40;99.90
20345;DHT22;10330;48.816;9.278;2024-02-21T11:45:47;12.40;99.90
20345;DHT22;10330;48.816;9.278;2024-02-21T11:48:14;12.50;99.90
20345;DHT22;10330;48.816;9.278;2024-02-21T11:53:45;12.60;99.90
20345;DHT22;10330;48.816;9.278;2024-02-21T11:56:12;12.70;99.90
20345;DHT22;10330;48.816;9.278;2024-02-21T11:58:39;12.80;99.90
20345;DHT22;10330;48.816;9.278;2024-02-21T12:01:09;12.70;99.90
20345;DHT22;10330;48.816;9.278;2024-02-21T12:03:35;12.80;99.90
20345;DHT22;10330;48.816;9.278;2024-02-21T12:09:49;13.00;99.90
20345;DHT22;10330;48.816;9.278;2024-02-21T12:12:25;13.20;99.90
20345;DHT22;10330;48.816;9.278;2024-02-21T12:14:58;13.20;99.90
20345;DHT22;10330;48.816;9.278;2024-02-21T12:17:25;13.00;99.90
20345;DHT22;10330;48.816;9.278;2024-02-21T12:19:53;13.00;99.90
20345;DHT22;10330;48.816;9.278;2024-02-21T12:22:22;13.00;99.90
20345;DHT22;10330;48.816;9.278;2024-02-21T12:24:54;13.00;99.90
20345;DHT22;10330;48.816;9.278;2024-02-21T12:27:26;13.10;99.90
20345;DHT22;10330;48.816;9.278;2024-02-21T12:29:56;13.20;99.90
20345;DHT22;10330;48.816;9.278;2024-02-21T12:32:34;13.30;99.90
20345;DHT22;10330;48.816;9.278;2024-02-21T12:35:01;13.20;99.90
20345;DHT22;10330;48.816;9.278;2024-02-21T12:37:31;13.20;99.90
20345;DHT22;10330;48.816;9.278;2024-02-21T12:39:59;13.30;99.90
20345;DHT22;10330;48.816;9.278;2024-02-21T12:42:36;13.30;99.90
20345;DHT22;10330;48.816;9.278;2024-02-21T12:45:06;13.30;99.90
20345;DHT22;10330;48.816;9.278;2024-02-21T12:47:44;13.40;99.90
20345;DHT22;10330;48.816;9.278;2024-02-21T12:50:11;13.40;99.90
20345;DHT22;10330;48.816;9.278;2024-02-21T12:52:37;13.60;99.90
20345;DHT22;10330;48.816;9.278;2024-02-21T12:55:03;13.40;99.90
20345;DHT22;10330;48.816;9.278;2024-02-21T12:57:30;13.50;99.90
20345;DHT22;10330;48.816;9.278;2024-02-21T12:59:57;13.50;99.90
20345;DHT22;10330;48.816;9.278;2024-02-21T13:02:23;13.60;99.90
20345;DHT22;10330;48.816;9.278;2024-02-21T13:04:50;13.60;99.90
20345;DHT22;10330;48.816;9.278;2024-02-21T13:07:16;13.70;99.90
20345;DHT22;10330;48.816;9.278;2024-02-21T13:09:42;13.70;99.90
20345;DHT22;10330;48.816;9.278;2024-02-21T13:12:09;13.90;99.90
20345;DHT22;10330;48.816;9.278;2024-02-21T13:14:38;14.00;99.90
20345;DHT22;10330;48.816;9.278;2024-02-21T13:17:05;14.00;99.90
20345;DHT22;10330;48.816;9.278;2024-02-21T13:22:41;14.00;99.90
20345;DHT22;10330;48.816;9.278;2024-02-21T13:29:01;13.90;99.90
20345;DHT22;10330;48.816;9.278;2024-02-21T13:31:28;13.70;99.90
20345;DHT22;10330;48.816;9.278;2024-02-21T13:33:58;13.90;99.90
20345;DHT22;10330;48.816;9.278;2024-02-21T13:36:38;13.80;99.90
20345;DHT22;10330;48.816;9.278;2024-02-21T13:39:05;13.90;99.90
20345;DHT22;10330;48.816;9.278;2024-02-21T13:41:31;14.00;99.90
20345;DHT22;10330;48.816;9.278;2024-02-21T13:43:57;13.90;99.90
20345;DHT22;10330;48.816;9.278;2024-02-21T13:46:26;13.90;99.90
20345;DHT22;10330;48.816;9.278;2024-02-21T13:51:59;13.90;99.90
20345;DHT22;10330;48.816;9.278;2024-02-21T13:54:26;13.90;99.90
20345;DHT22;10330;48.816;9.278;2024-02-21T13:57:00;13.80;99.90
20345;DHT22;10330;48.816;9.278;2024-02-21T13:59:28;13.80;99.90
20345;DHT22;10330;48.816;9.278;2024-02-21T14:05:34;13.70;99.90
20345;DHT22;10330;48.816;9.278;2024-02-21T14:08:49;13.60;99.90
20345;DHT22;10330;48.816;9.278;2024-02-21T14:11:17;13.50;99.90
20345;DHT22;10330;48.816;9.278;2024-02-21T14:13:46;13.50;99.90
20345;DHT22;10330;48.816;9.278;2024-02-21T14:16:13;13.50;99.90
20345;DHT22;10330;48.816;9.278;2024-02-21T14:18:40;13.50;99.90
20345;DHT22;10330;48.816;9.278;2024-02-21T14:21:12;13.60;99.90
20345;DHT22;10330;48.816;9.278;2024-02-21T14:23:39;13.60;99.90
20345;DHT22;10330;48.816;9.278;2024-02-21T14:26:06;13.50;99.90
20345;DHT22;10330;48.816;9.278;2024-02-21T14:28:35;13.50;99.90
20345;DHT22;10330;48.816;9.278;2024-02-21T14:31:08;13.40;99.90
20345;DHT22;10330;48.816;9.278;2024-02-21T14:33:37;13.40;99.90
20345;DHT22;10330;48.816;9.278;2024-02-21T14:38:59;13.30;99.90
20345;DHT22;10330;48.816;9.278;2024-02-21T14:44:44;13.40;99.90
20345;DHT22;10330;48.816;9.278;2024-02-21T14:47:21;13.30;99.90
20345;DHT22;10330;48.816;9.278;2024-02-21T14:54:10;13.30;99.90
20345;DHT22;10330;48.816;9.278;2024-02-21T14:56:40;13.40;99.90
20345;DHT22;10330;48.816;9.278;2024-02-21T14:59:07;13.40;99.90
20345;DHT22;10330;48.816;9.278;2024-02-21T15:01:37;13.30;99.90
20345;DHT22;10330;48.816;9.278;2024-02-21T15:04:07;13.30;99.90
20345;DHT22;10330;48.816;9.278;2024-02-21T15:45:38;13.00;99.90
20345;DHT22;10330;48.816;9.278;2024-02-21T15:52:17;12.90;99.90
20345;DHT22;10330;48.816;9.278;2024-02-21T15:54:43;12.90;99.90
20345;DHT22;10330;48.816;9.278;2024-02-21T16:22:27;12.60;99.90
20345;DHT22;10330;48.816;9.278;2024-02-21T16:33:07;12.40;99.90
20345;DHT22;10330;48.816;9.278;2024-02-21T16:36:40;12.30;99.90
20345;DHT22;10330;48.816;9.278;2024-02-21T16:47:15;12.10;99.90
20345;DHT22;10330;48.816;9.278;2024-02-21T16:50:14;12.00;99.90
20345;DHT22;10330;48.816;9.278;2024-02-21T17:04:19;11.80;99.90
20345;DHT22;10330;48.816;9.278;2024-02-21T17:11:14;11.60;99.90
20345;DHT22;10330;48.816;9.278;2024-02-21T17:14:18;11.60;99.90
20345;DHT22;10330;48.816;9.278;2024-02-21T17:17:28;11.60;99.90
20345;DHT22;10330;48.816;9.278;2024-02-21T17:24:13;11.50;99.90
20345;DHT22;10330;48.816;9.278;2024-02-21T17:43:30;11.50;99.90
20345;DHT22;10330;48.816;9.278;2024-02-21T17:52:50;11.50;99.90
20345;DHT22;10330;48.816;9.278;2024-02-21T17:55:17;11.40;99.90
20345;DHT22;10330;48.816;9.278;2024-02-21T17:57:43;11.40;99.90
20345;DHT22;10330;48.816;9.278;2024-02-21T18:00:11;11.40;99.90
20345;DHT22;10330;48.816;9.278;2024-02-21T18:02:40;11.50;99.90
20345;DHT22;10330;48.816;9.278;2024-02-21T18:05:27;11.50;99.90
20345;DHT22;10330;48.816;9.278;2024-02-21T18:24:18;11.60;99.90
20345;DHT22;10330;48.816;9.278;2024-02-21T18:31:34;11.60;99.90
20345;DHT22;10330;48.816;9.278;2024-02-21T18:34:06;11.60;99.90
20345;DHT22;10330;48.816;9.278;2024-02-21T18:36:50;11.60;99.90
20345;DHT22;10330;48.816;9.278;2024-02-21T18:39:18;11.60;99.90
20345;DHT22;10330;48.816;9.278;2024-02-21T18:42:09;11.60;99.90
20345;DHT22;10330;48.816;9.278;2024-02-21T18:45:22;11.60;99.90
20345;DHT22;10330;48.816;9.278;2024-02-21T18:47:54;11.60;99.90
20345;DHT22;10330;48.816;9.278;2024-02-21T18:57:57;11.50;99.90
20345;DHT22;10330;48.816;9.278;2024-02-21T19:00:41;11.50;99.90
20345;DHT22;10330;48.816;9.278;2024-02-21T19:03:25;11.50;99.90
20345;DHT22;10330;48.816;9.278;2024-02-21T19:05:54;11.50;99.90
20345;DHT22;10330;48.816;9.278;2024-02-21T19:09:12;11.60;99.90
20345;DHT22;10330;48.816;9.278;2024-02-21T19:12:10;11.60;99.90
20345;DHT22;10330;48.816;9.278;2024-02-21T19:15:04;11.60;99.90
20345;DHT22;10330;48.816;9.278;2024-02-21T19:17:35;11.70;99.90
20345;DHT22;10330;48.816;9.278;2024-02-21T19:20:19;11.80;99.90
20345;DHT22;10330;48.816;9.278;2024-02-21T19:23:09;11.90;99.90
20345;DHT22;10330;48.816;9.278;2024-02-21T19:25:52;11.90;99.90
20345;DHT22;10330;48.816;9.278;2024-02-21T19:28:35;11.90;99.90
20345;DHT22;10330;48.816;9.278;2024-02-21T19:31:20;11.90;99.90
20345;DHT22;10330;48.816;9.278;2024-02-21T19:33:58;12.00;99.90
20345;DHT22;10330;48.816;9.278;2024-02-21T19:36:42;12.00;99.90
20345;DHT22;10330;48.816;9.278;2024-02-21T19:39:32;11.90;99.90
20345;DHT22;10330;48.816;9.278;2024-02-21T19:45:14;11.90;99.90
20345;DHT22;10330;48.816;9.278;2024-02-21T19:47:53;11.90;99.90
20345;DHT22;10330;48.816;9.278;2024-02-21T19:50:20;11.90;99.90
20345;DHT22;10330;48.816;9.278;2024-02-21T19:52:57;12.00;99.90
20345;DHT22;10330;48.816;9.278;2024-02-21T19:55:27;11.80;99.90
20345;DHT22;10330;48.816;9.278;2024-02-21T19:57:54;11.90;99.90
20345;DHT22;10330;48.816;9.278;2024-02-21T20:00:23;11.90;99.90
20345;DHT22;10330;48.816;9.278;2024-02-21T20:02:50;11.90;99.90
20345;DHT22;10330;48.816;9.278;2024-02-21T20:05:18;11.90;99.90
20345;DHT22;10330;48.816;9.278;2024-02-21T20:07:45;11.90;99.90
20345;DHT22;10330;48.816;9.278;2024-02-21T20:10:12;11.90;99.90
20345;DHT22;10330;48.816;9.278;2024-02-21T20:12:49;11.90;99.90
20345;DHT22;10330;48.816;9.278;2024-02-21T20:15:30;11.90;99.90
20345;DHT22;10330;48.816;9.278;2024-02-21T20:17:56;11.90;99.90
20345;DHT22;10330;48.816;9.278;2024-02-21T20:20:33;11.90;99.90
20345;DHT22;10330;48.816;9.278;2024-02-21T20:23:25;11.80;99.90
20345;DHT22;10330;48.816;9.278;2024-02-21T20:26:02;11.80;99.90
20345;DHT22;10330;48.816;9.278;2024-02-21T20:28:36;11.80;99.90
20345;DHT22;10330;48.816;9.278;2024-02-21T20:35:04;11.80;99.90
20345;DHT22;10330;48.816;9.278;2024-02-21T20:41:49;11.90;99.90
20345;DHT22;10330;48.816;9.278;2024-02-21T20:48:00;11.90;99.90
20345;DHT22;10330;48.816;9.278;2024-02-21T20:50:29;11.90;99.90
20345;DHT22;10330;48.816;9.278;2024-02-21T20:55:58;11.80;99.90
20345;DHT22;10330;48.816;9.278;2024-02-21T20:58:24;11.80;99.90
20345;DHT22;10330;48.816;9.278;2024-02-21T21:00:54;11.70;99.90
20345;DHT22;10330;48.816;9.278;2024-02-21T21:03:36;11.80;99.90
20345;DHT22;10330;48.816;9.278;2024-02-21T21:06:09;11.70;99.90
20345;DHT22;10330;48.816;9.278;2024-02-21T21:08:40;11.80;99.90
20345;DHT22;10330;48.816;9.278;2024-02-21T21:11:06;11.80;99.90
20345;DHT22;10330;48.816;9.278;2024-02-21T21:13:32;11.80;99.90
20345;DHT22;10330;48.816;9.278;2024-02-21T21:16:01;11.70;99.90
20345;DHT22;10330;48.816;9.278;2024-02-21T21:18:28;11.70;99.90
20345;DHT22;10330;48.816;9.278;2024-02-21T21:21:00;11.70;99.90
20345;DHT22;10330;48.816;9.278;2024-02-21T21:23:27;11.70;99.90
20345;DHT22;10330;48.816;9.278;2024-02-21T21:25:54;11.70;99.90
20345;DHT22;10330;48.816;9.278;2024-02-21T21:28:28;11.70;99.90
20345;DHT22;10330;48.816;9.278;2024-02-21T21:30:54;11.80;99.90
20345;DHT22;10330;48.816;9.278;2024-02-21T21:33:22;11.70;99.90
20345;DHT22;10330;48.816;9.278;2024-02-21T21:35:48;11.70;99.90
20345;DHT22;10330;48.816;9.278;2024-02-21T21:38:18;11.80;99.90
20345;DHT22;10330;48.816;9.278;2024-02-21T21:40:54;11.80;99.90
20345;DHT22;10330;48.816;9.278;2024-02-21T21:43:21;11.90;99.90
20345;DHT22;10330;48.816;9.278;2024-02-21T21:45:57;12.00;99.90
20345;DHT22;10330;48.816;9.278;2024-02-21T21:48:23;12.00;99.90
20345;DHT22;10330;48.816;9.278;2024-02-21T21:50:50;11.90;99.90
20345;DHT22;10330;48.816;9.278;2024-02-21T21:53:16;12.00;99.90
20345;DHT22;10330;48.816;9.278;2024-02-21T21:55:45;12.00;99.90
20345;DHT22;10330;48.816;9.278;2024-02-21T21:58:13;12.00;99.90
20345;DHT22;10330;48.816;9.278;2024-02-21T22:00:39;11.90;99.90
20345;DHT22;10330;48.816;9.278;2024-02-21T22:03:05;11.90;99.90
20345;DHT22;10330;48.816;9.278;2024-02-21T22:05:32;11.90;99.90
20345;DHT22;10330;48.816;9.278;2024-02-21T22:07:58;11.90;99.90
20345;DHT22;10330;48.816;9.278;2024-02-21T22:10:25;12.00;99.90
20345;DHT22;10330;48.816;9.278;2024-02-21T22:12:51;12.00;99.90
20345;DHT22;10330;48.816;9.278;2024-02-21T22:15:17;12.00;99.90
20345;DHT22;10330;48.816;9.278;2024-02-21T22:17:43;12.00;99.90
20345;DHT22;10330;48.816;9.278;2024-02-21T22:20:09;12.00;99.90
20345;DHT22;10330;48.816;9.278;2024-02-21T22:22:36;12.00;99.90
20345;DHT22;10330;48.816;9.278;2024-02-21T22:25:02;12.00;99.90